Time;durP1;ratioP1;P1;durP2;ratioP2;P2;SDS_P1;SDS_P2;PMS_P1;PMS_P2;Temp;Humidity;BMP_temperature;BMP_pressure;BME280_temperature;BME280_humidity;BME280_pressure;Samples;Min_cycle;Max_cycle;Signal;HPM_P1;HPM_P2
2021/04/15 00:00:13;;;;;;;2.23;1.97;;;3.00;99.90;;;;;;5120076;28;20416;-80
2021/04/15 00:02:38;;;;;;;2.13;1.90;;;2.90;99.90;;;;;;5121977;27;20188;-80
2021/04/15 00:05:04;;;;;;;3.10;2.67;;;2.90;99.90;;;;;;5143540;27;20458;-81
2021/04/15 00:07:30;;;;;;;1.70;1.60;;;2.90;99.90;;;;;;5125807;27;20624;-80
2021/04/15 00:09:55;;;;;;;1.80;1.67;;;2.90;99.90;;;;;;5143031;27;20412;-81
2021/04/15 00:12:21;;;;;;;4.00;2.00;;;2.90;99.90;;;;;;5142136;27;20238;-80
2021/04/15 00:14:46;;;;;;;1.80;1.70;;;2.90;99.90;;;;;;5142608;27;20257;-81
2021/04/15 00:17:12;;;;;;;2.70;1.50;;;2.90;99.90;;;;;;5143925;27;20295;-80
2021/04/15 00:19:37;;;;;;;1.90;1.80;;;2.90;99.90;;;;;;5143016;27;20164;-80
2021/04/15 00:22:05;;;;;;;1.77;1.67;;;2.80;99.90;;;;;;5125885;27;20208;-81
2021/04/15 00:24:31;;;;;;;2.20;2.00;;;2.90;99.90;;;;;;5144563;27;20458;-81
2021/04/15 00:26:57;;;;;;;1.43;1.33;;;2.80;99.90;;;;;;5144208;27;20172;-80
2021/04/15 00:29:22;;;;;;;3.60;2.37;;;2.80;99.90;;;;;;5145104;27;20521;-79
2021/04/15 00:31:47;;;;;;;5.70;2.40;;;2.80;99.90;;;;;;5149497;27;20168;-79
2021/04/15 00:34:13;;;;;;;3.70;1.90;;;2.70;99.90;;;;;;5152441;27;20174;-79
2021/04/15 00:36:38;;;;;;;4.50;1.70;;;2.70;99.90;;;;;;5152475;27;20177;-79
2021/04/15 00:39:04;;;;;;;2.03;1.83;;;2.60;99.90;;;;;;5155265;27;20195;-80
2021/04/15 00:41:31;;;;;;;4.57;1.63;;;2.60;99.90;;;;;;5156886;27;20192;-80
2021/04/15 00:43:56;;;;;;;2.20;1.53;;;2.60;99.90;;;;;;5154357;27;20421;-79
2021/04/15 00:47:01;;;;;;;2.57;1.40;;;2.60;99.90;;;;;;5135580;27;20535;-80
2021/04/15 00:49:38;;;;;;;1.63;1.30;;;2.60;99.90;;;;;;5120709;28;20337;-80
2021/04/15 00:52:10;;;;;;;2.10;1.40;;;2.50;99.90;;;;;;5121578;28;20426;-80
2021/04/15 00:54:53;;;;;;;1.67;1.57;;;2.50;99.90;;;;;;5127848;28;20819;-82
2021/04/15 00:57:24;;;;;;;4.97;1.90;;;2.50;99.90;;;;;;5130075;27;20449;-80
2021/04/15 00:59:50;;;;;;;1.47;1.30;;;2.50;99.90;;;;;;5141800;27;20397;-80
2021/04/15 01:02:19;;;;;;;1.67;1.57;;;2.40;99.90;;;;;;5124143;27;20458;-82
2021/04/15 01:04:45;;;;;;;3.03;1.90;;;2.50;99.90;;;;;;5102584;28;20165;-80
2021/04/15 01:07:12;;;;;;;1.90;1.80;;;2.40;99.90;;;;;;5120536;28;20411;-80
2021/04/15 01:10:05;;;;;;;2.87;1.50;;;2.40;99.90;;;;;;5101812;28;20471;-80
2021/04/15 01:12:46;;;;;;;1.63;1.50;;;2.50;99.90;;;;;;5104298;28;20458;-81
2021/04/15 01:15:20;;;;;;;1.63;1.53;;;2.50;99.90;;;;;;5101399;28;20411;-81
2021/04/15 01:17:55;;;;;;;2.60;1.73;;;2.40;99.90;;;;;;5119608;28;20497;-79
2021/04/15 01:21:18;;;;;;;2.43;1.73;;;2.40;99.90;;;;;;5137867;27;20772;-81
2021/04/15 01:24:04;;;;;;;1.60;1.40;;;2.40;99.90;;;;;;5139897;27;20461;-80
2021/04/15 01:26:57;;;;;;;1.93;1.70;;;2.30;99.90;;;;;;5141535;27;20421;-81
2021/04/15 01:29:28;;;;;;;2.00;1.80;;;2.30;99.90;;;;;;5141919;27;20382;-80
2021/04/15 01:32:15;;;;;;;1.90;1.60;;;2.20;99.90;;;;;;5116186;28;20447;-79
2021/04/15 01:34:59;;;;;;;2.23;1.77;;;2.20;99.90;;;;;;5135401;28;20405;-80
2021/04/15 01:37:55;;;;;;;3.67;2.50;;;2.10;99.90;;;;;;5136357;28;20439;-80
2021/04/15 01:40:33;;;;;;;2.67;2.00;;;2.10;99.90;;;;;;5116641;28;20387;-80
2021/04/15 01:43:23;;;;;;;1.70;1.60;;;2.10;99.90;;;;;;5143869;27;20441;-80
2021/04/15 01:45:54;;;;;;;2.00;1.63;;;2.10;99.90;;;;;;5138354;27;20421;-79
2021/04/15 01:48:42;;;;;;;2.57;1.60;;;2.00;99.90;;;;;;5129736;27;20382;-81
2021/04/15 01:51:15;;;;;;;1.90;1.70;;;2.00;99.90;;;;;;5122663;27;20498;-81
2021/04/15 01:53:59;;;;;;;2.00;1.80;;;2.00;99.90;;;;;;5143295;27;20418;-81
2021/04/15 01:56:26;;;;;;;3.83;1.93;;;2.00;99.90;;;;;;5122848;27;20402;-81
2021/04/15 01:59:05;;;;;;;2.40;1.87;;;2.00;99.90;;;;;;5140937;27;20940;-82
2021/04/15 02:01:34;;;;;;;3.23;2.13;;;2.00;99.90;;;;;;5140832;27;20405;-82
2021/04/15 02:04:06;;;;;;;2.80;2.23;;;2.00;99.90;;;;;;5140639;27;20406;-82
2021/04/15 02:06:35;;;;;;;2.13;1.90;;;2.00;99.90;;;;;;5140399;27;20402;-82
2021/04/15 02:09:06;;;;;;;1.90;1.77;;;2.00;99.90;;;;;;5122824;27;20402;-81
2021/04/15 02:11:58;;;;;;;2.30;1.83;;;2.00;99.90;;;;;;5148794;27;20388;-80
2021/04/15 02:14:27;;;;;;;2.37;1.87;;;1.90;99.90;;;;;;5146520;27;20504;-79
2021/04/15 02:16:54;;;;;;;2.47;2.10;;;1.90;99.90;;;;;;5152397;27;20405;-81
2021/04/15 02:19:36;;;;;;;2.27;1.83;;;1.90;99.90;;;;;;5131284;27;20405;-81
2021/04/15 02:22:20;;;;;;;2.90;2.27;;;2.00;99.90;;;;;;5149087;27;20493;-81
2021/04/15 02:25:03;;;;;;;2.10;1.50;;;2.00;99.90;;;;;;5147447;27;20395;-80
2021/04/15 02:27:56;;;;;;;2.40;1.93;;;2.00;99.90;;;;;;5138951;27;20446;-80
2021/04/15 02:30:36;;;;;;;4.40;1.77;;;1.90;99.90;;;;;;5139934;27;20394;-80
2021/04/15 02:33:20;;;;;;;4.47;2.63;;;1.90;99.90;;;;;;5140380;27;20436;-80
2021/04/15 02:35:56;;;;;;;3.77;2.67;;;2.00;99.90;;;;;;5141396;27;20425;-80
2021/04/15 02:38:31;;;;;;;5.70;2.93;;;1.90;99.90;;;;;;5140000;27;20433;-80
2021/04/15 02:41:00;;;;;;;3.10;2.07;;;1.90;99.90;;;;;;5120947;27;20793;-81
2021/04/15 02:43:44;;;;;;;2.93;2.60;;;1.90;99.90;;;;;;5129615;27;20934;-81
2021/04/15 02:46:17;;;;;;;3.83;2.50;;;1.90;99.90;;;;;;5118907;28;20390;-81
2021/04/15 02:48:45;;;;;;;8.63;2.63;;;1.80;99.90;;;;;;5118628;28;20439;-81
2021/04/15 02:51:20;;;;;;;2.70;2.27;;;1.80;99.90;;;;;;5101039;28;20434;-81
2021/04/15 02:53:51;;;;;;;4.90;2.50;;;1.80;99.90;;;;;;5118868;28;20452;-81
2021/04/15 02:56:27;;;;;;;3.80;2.40;;;1.80;99.90;;;;;;5119290;28;20418;-81
2021/04/15 02:59:30;;;;;;;3.73;2.53;;;1.80;99.90;;;;;;5119978;28;20503;-81
2021/04/15 03:02:11;;;;;;;3.60;2.90;;;1.80;99.90;;;;;;5119107;28;20440;-81
2021/04/15 03:04:40;;;;;;;4.30;2.50;;;1.70;99.90;;;;;;5121187;28;20391;-81
2021/04/15 03:07:07;;;;;;;4.50;2.50;;;1.70;99.90;;;;;;5131739;28;20623;-81
2021/04/15 03:09:35;;;;;;;3.23;2.30;;;1.70;99.90;;;;;;5129931;28;20408;-80
2021/04/15 03:12:05;;;;;;;7.20;2.57;;;1.70;99.90;;;;;;5100512;28;20835;-81
2021/04/15 03:14:40;;;;;;;7.50;2.50;;;1.70;99.90;;;;;;5118992;28;20383;-81
2021/04/15 03:17:10;;;;;;;3.50;3.10;;;1.70;99.90;;;;;;5118860;28;20481;-81
2021/04/15 03:19:38;;;;;;;4.90;2.50;;;1.60;99.90;;;;;;5118998;28;20398;-81
2021/04/15 03:22:13;;;;;;;8.67;3.33;;;1.60;99.90;;;;;;5119060;28;20446;-81
2021/04/15 03:24:42;;;;;;;4.40;3.10;;;1.60;99.90;;;;;;5119344;28;20390;-80
2021/04/15 03:27:34;;;;;;;4.63;3.23;;;1.60;99.90;;;;;;5118144;28;20439;-81
2021/04/15 03:30:05;;;;;;;3.27;2.70;;;1.60;99.90;;;;;;5100663;28;20410;-81
2021/04/15 03:32:43;;;;;;;6.17;3.40;;;1.60;99.90;;;;;;5119342;28;20910;-81
2021/04/15 03:35:22;;;;;;;3.13;2.70;;;1.50;99.90;;;;;;5124786;28;20387;-81
2021/04/15 03:38:09;;;;;;;5.60;4.00;;;1.50;99.90;;;;;;5125367;28;20482;-82
2021/04/15 03:40:37;;;;;;;5.50;3.60;;;1.60;99.90;;;;;;5122362;28;20390;-81
2021/04/15 03:43:12;;;;;;;6.33;3.90;;;1.60;99.90;;;;;;5133375;27;20449;-81
2021/04/15 03:45:48;;;;;;;4.07;2.97;;;1.60;99.90;;;;;;5115677;27;20417;-81
2021/04/15 03:48:19;;;;;;;4.10;3.03;;;1.60;99.90;;;;;;5143913;27;20409;-80
2021/04/15 03:50:56;;;;;;;6.90;3.10;;;1.60;99.90;;;;;;5142925;27;21054;-82
2021/04/15 03:53:34;;;;;;;5.50;2.57;;;1.60;99.90;;;;;;5143408;27;20878;-81
2021/04/15 03:56:04;;;;;;;5.17;3.17;;;1.60;99.90;;;;;;5142270;27;20429;-80
2021/04/15 03:58:38;;;;;;;12.77;3.90;;;1.60;99.90;;;;;;5143082;27;20449;-80
2021/04/15 04:01:09;;;;;;;6.00;3.20;;;1.60;99.90;;;;;;5143594;27;20400;-81
2021/04/15 04:03:39;;;;;;;5.50;4.40;;;1.60;99.90;;;;;;5143046;27;20791;-82
2021/04/15 04:06:13;;;;;;;6.10;3.70;;;1.70;99.90;;;;;;5146067;27;20416;-81
2021/04/15 04:08:48;;;;;;;6.20;3.50;;;1.70;99.90;;;;;;5146596;27;20429;-81
2021/04/15 04:11:21;;;;;;;6.57;3.70;;;1.70;99.90;;;;;;5143936;27;20393;-81
2021/04/15 04:14:04;;;;;;;3.97;3.23;;;1.70;99.90;;;;;;5124423;27;20445;-81
2021/04/15 04:16:32;;;;;;;6.23;4.10;;;1.70;99.90;;;;;;5141528;27;20406;-81
2021/04/15 04:19:30;;;;;;;11.30;4.43;;;1.70;99.90;;;;;;5141990;27;20477;-80
2021/04/15 04:22:08;;;;;;;4.17;2.90;;;1.70;99.90;;;;;;5123595;27;20508;-80
2021/04/15 04:24:45;;;;;;;5.40;3.53;;;1.70;99.90;;;;;;5141366;27;20452;-80
2021/04/15 04:27:26;;;;;;;4.67;3.70;;;1.70;99.90;;;;;;5141635;27;20402;-80
2021/04/15 04:29:56;;;;;;;6.40;3.30;;;1.70;99.90;;;;;;5123065;27;20406;-80
2021/04/15 04:32:24;;;;;;;8.93;3.57;;;1.70;99.90;;;;;;5141970;27;20998;-81
2021/04/15 04:34:56;;;;;;;5.00;2.90;;;1.80;99.90;;;;;;5141464;27;20410;-81
2021/04/15 04:37:27;;;;;;;10.13;3.80;;;1.80;99.90;;;;;;5141621;27;20458;-80
2021/04/15 04:39:56;;;;;;;4.80;3.53;;;1.80;99.90;;;;;;5125275;27;20485;-80
2021/04/15 04:42:34;;;;;;;6.23;3.77;;;1.90;99.90;;;;;;5145143;27;20509;-81
2021/04/15 04:45:00;;;;;;;5.00;3.80;;;1.90;99.90;;;;;;5134439;27;20395;-81
2021/04/15 04:47:41;;;;;;;8.27;3.90;;;2.00;99.90;;;;;;5140003;27;20413;-80
2021/04/15 04:50:25;;;;;;;7.10;4.10;;;2.00;99.90;;;;;;5141720;27;20168;-81
2021/04/15 04:53:05;;;;;;;6.30;4.30;;;2.00;99.90;;;;;;5142714;27;20785;-80
2021/04/15 04:55:52;;;;;;;7.63;4.20;;;2.00;99.90;;;;;;5144375;27;20393;-80
2021/04/15 04:58:19;;;;;;;4.83;3.37;;;2.10;99.90;;;;;;5123614;27;20456;-80
2021/04/15 05:00:49;;;;;;;5.70;3.93;;;2.10;99.90;;;;;;5141270;27;21070;-81
2021/04/15 05:03:23;;;;;;;5.67;3.60;;;2.20;99.90;;;;;;5123038;27;20446;-81
2021/04/15 05:05:58;;;;;;;5.70;4.20;;;2.20;99.90;;;;;;5140949;27;20390;-81
2021/04/15 05:08:26;;;;;;;4.30;3.90;;;2.20;99.90;;;;;;5141481;27;20946;-81
2021/04/15 05:10:53;;;;;;;5.70;3.30;;;2.30;99.90;;;;;;5142019;27;20421;-81
2021/04/15 05:13:24;;;;;;;12.30;4.10;;;2.30;99.90;;;;;;5141484;27;20418;-81
2021/04/15 05:15:49;;;;;;;8.37;3.63;;;2.30;99.90;;;;;;5140864;27;20414;-80
2021/04/15 05:18:19;;;;;;;9.10;3.60;;;2.30;99.90;;;;;;5139288;27;20457;-79
2021/04/15 05:20:45;;;;;;;5.47;3.60;;;2.40;99.90;;;;;;5139622;27;20200;-79
2021/04/15 05:23:24;;;;;;;7.60;3.87;;;2.60;99.90;;;;;;5139569;27;20413;-80
2021/04/15 05:26:10;;;;;;;10.17;4.67;;;2.60;99.90;;;;;;5139664;27;20493;-80
2021/04/15 05:28:37;;;;;;;8.17;3.97;;;2.70;99.90;;;;;;5141289;27;20459;-79
2021/04/15 05:31:05;;;;;;;7.53;3.50;;;2.80;99.90;;;;;;5140859;27;20409;-79
2021/04/15 05:33:31;;;;;;;6.50;4.60;;;2.80;99.90;;;;;;5141797;27;20847;-78
2021/04/15 05:36:19;;;;;;;5.57;3.70;;;2.80;99.90;;;;;;5121048;27;20425;-79
2021/04/15 05:38:51;;;;;;;4.60;3.77;;;2.80;99.90;;;;;;5138800;27;20460;-78
2021/04/15 05:41:45;;;;;;;4.63;3.20;;;2.90;99.90;;;;;;5138839;27;20434;-79
2021/04/15 05:44:24;;;;;;;7.00;3.17;;;3.10;99.90;;;;;;5136084;27;20436;-79
2021/04/15 05:46:51;;;;;;;7.90;3.40;;;3.10;99.90;;;;;;5134054;27;20422;-79
2021/04/15 05:49:24;;;;;;;5.00;3.23;;;3.20;99.90;;;;;;5138933;27;20972;-79
2021/04/15 05:52:03;;;;;;;3.30;3.00;;;3.10;99.90;;;;;;5141106;27;20406;-79
2021/04/15 05:54:31;;;;;;;4.03;3.10;;;3.20;99.90;;;;;;5137970;27;20910;-78
2021/04/15 05:57:22;;;;;;;6.53;2.97;;;3.30;99.90;;;;;;5135949;27;20413;-79
2021/04/15 06:00:02;;;;;;;3.70;3.00;;;3.30;99.90;;;;;;5126021;27;20505;-78
2021/04/15 06:02:53;;;;;;;3.37;3.07;;;3.30;99.90;;;;;;5139784;27;20421;-78
2021/04/15 06:05:31;;;;;;;10.43;3.00;;;3.40;99.90;;;;;;5136848;27;20401;-78
2021/04/15 06:08:01;;;;;;;3.30;2.23;;;3.50;99.90;;;;;;5118317;27;20496;-78
2021/04/15 06:10:31;;;;;;;3.67;2.50;;;3.50;99.90;;;;;;5138317;27;20406;-80
2021/04/15 06:13:21;;;;;;;4.23;2.37;;;3.40;99.90;;;;;;5139533;27;20422;-78
2021/04/15 06:15:52;;;;;;;3.57;2.73;;;3.70;99.90;;;;;;5121937;27;20402;-78
2021/04/15 06:18:36;;;;;;;5.20;2.90;;;3.60;99.90;;;;;;5136780;27;20800;-78
2021/04/15 06:21:07;;;;;;;3.50;2.57;;;3.70;99.90;;;;;;5136712;27;20438;-79
2021/04/15 06:23:40;;;;;;;6.83;3.27;;;3.90;99.90;;;;;;5118126;27;20983;-78
2021/04/15 06:26:08;;;;;;;9.23;3.00;;;4.00;99.90;;;;;;5137296;27;20429;-79
2021/04/15 06:28:40;;;;;;;5.43;2.63;;;3.90;99.90;;;;;;5138190;27;20406;-80
2021/04/15 06:31:17;;;;;;;3.50;2.50;;;4.00;99.90;;;;;;5134327;27;20406;-75
2021/04/15 06:33:44;;;;;;;7.80;3.33;;;4.20;99.90;;;;;;5133756;27;20504;-75
2021/04/15 06:36:40;;;;;;;4.90;2.40;;;4.40;99.90;;;;;;5133662;27;20905;-76
2021/04/15 06:39:32;;;;;;;6.67;4.73;;;4.20;99.90;;;;;;5134525;27;20453;-80
2021/04/15 06:42:21;;;;;;;6.20;3.37;;;4.30;99.90;;;;;;5138497;27;20434;-80
2021/04/15 06:45:08;;;;;;;6.10;2.93;;;4.30;99.90;;;;;;5128155;27;20411;-77
2021/04/15 06:48:05;;;;;;;3.53;2.80;;;4.40;99.90;;;;;;5116182;28;20765;-79
2021/04/15 06:50:47;;;;;;;3.53;2.70;;;4.50;99.90;;;;;;5118189;28;20477;-79
2021/04/15 06:53:49;;;;;;;4.30;2.63;;;4.60;99.90;;;;;;5117760;28;20427;-79
2021/04/15 06:56:28;;;;;;;4.00;3.10;;;4.60;99.90;;;;;;5118817;28;20497;-80
2021/04/15 06:59:00;;;;;;;4.33;3.63;;;5.00;99.90;;;;;;5123659;28;20442;-80
2021/04/15 07:01:30;;;;;;;4.67;2.70;;;5.10;99.90;;;;;;5122512;28;20415;-81
2021/04/15 07:04:19;;;;;;;6.43;3.00;;;5.30;99.90;;;;;;5123157;28;20422;-80
2021/04/15 07:07:06;;;;;;;5.33;2.70;;;5.60;99.90;;;;;;5119604;28;20459;-76
2021/04/15 07:10:12;;;;;;;3.40;2.60;;;5.60;99.90;;;;;;5118340;28;20486;-81
2021/04/15 07:13:15;;;;;;;5.20;2.47;;;5.60;99.90;;;;;;5119515;28;20458;-81
2021/04/15 07:15:59;;;;;;;4.60;2.50;;;5.60;99.90;;;;;;5124908;27;20452;-81
2021/04/15 07:18:42;;;;;;;4.70;3.20;;;6.00;99.90;;;;;;5132758;27;20457;-80
2021/04/15 07:21:31;;;;;;;2.50;2.30;;;6.20;99.90;;;;;;5141792;27;20402;-80
2021/04/15 07:24:31;;;;;;;4.13;2.37;;;6.20;99.90;;;;;;5120810;27;20399;-80
2021/04/15 07:27:32;;;;;;;3.80;2.43;;;6.50;99.90;;;;;;5130529;27;20402;-80
2021/04/15 07:30:10;;;;;;;4.70;1.90;;;6.20;99.90;;;;;;5139686;27;20408;-80
2021/04/15 07:33:16;;;;;;;4.10;2.03;;;6.30;99.90;;;;;;5120061;28;20493;-77
2021/04/15 07:36:17;;;;;;;3.23;1.80;;;6.70;99.90;;;;;;5123157;28;20422;-80
2021/04/15 07:39:07;;;;;;;2.40;1.57;;;6.90;99.90;;;;;;5123899;28;20454;-81
2021/04/15 07:41:56;;;;;;;3.20;1.90;;;7.10;99.90;;;;;;5122233;27;20406;-78
2021/04/15 07:44:30;;;;;;;2.53;2.00;;;7.20;99.90;;;;;;5138365;27;20429;-76
2021/04/15 07:47:18;;;;;;;3.00;1.90;;;7.30;99.90;;;;;;5141140;27;20402;-80
2021/04/15 07:50:14;;;;;;;5.90;2.20;;;7.30;99.90;;;;;;5141507;27;20421;-81
2021/04/15 07:53:04;;;;;;;4.83;3.13;;;7.50;99.90;;;;;;5141013;27;20423;-82
2021/04/15 07:55:37;;;;;;;2.23;2.00;;;7.30;99.90;;;;;;5140311;27;20402;-82
2021/04/15 07:58:10;;;;;;;5.37;2.77;;;7.90;99.90;;;;;;5140966;27;20446;-82
2021/04/15 08:00:57;;;;;;;2.00;1.70;;;7.70;99.90;;;;;;5140237;27;20388;-82
2021/04/15 08:03:58;;;;;;;2.20;1.67;;;7.80;99.90;;;;;;5121883;27;20961;-82
2021/04/15 08:06:48;;;;;;;1.63;1.53;;;8.10;99.90;;;;;;5141078;27;20765;-83
2021/04/15 08:09:32;;;;;;;4.30;1.30;;;8.10;99.90;;;;;;5141413;27;20420;-83
2021/04/15 08:12:06;;;;;;;3.00;1.60;;;8.00;99.90;;;;;;5132778;27;20961;-84
2021/04/15 08:14:46;;;;;;;6.40;1.50;;;7.80;99.90;;;;;;5139978;27;20410;-84
2021/04/15 08:17:13;;;;;;;1.40;1.13;;;7.70;99.90;;;;;;5141187;27;20402;-84
2021/04/15 08:20:26;;;;;;;1.53;1.43;;;7.90;99.90;;;;;;5141693;27;20394;-83
2021/04/15 08:23:19;;;;;;;2.17;1.37;;;8.30;99.90;;;;;;5122503;27;20430;-83
2021/04/15 08:26:07;;;;;;;1.50;1.10;;;8.50;99.90;;;;;;5141779;27;20764;-83
2021/04/15 08:29:10;;;;;;;4.83;1.27;;;8.90;99.90;;;;;;5127224;27;20414;-83
2021/04/15 08:32:00;;;;;;;2.13;1.70;;;8.50;99.90;;;;;;5120112;28;20409;-83
2021/04/15 08:34:50;;;;;;;3.10;1.30;;;8.20;99.90;;;;;;5120302;28;20411;-84
2021/04/15 08:37:35;;;;;;;2.33;1.37;;;8.10;99.90;;;;;;5100734;28;20407;-84
2021/04/15 08:40:13;;;;;;;1.60;1.50;;;8.40;99.90;;;;;;5121369;28;20406;-83
2021/04/15 08:43:19;;;;;;;1.70;1.50;;;8.60;99.90;;;;;;5131196;27;20431;-83
2021/04/15 08:46:12;;;;;;;1.87;1.30;;;8.40;99.90;;;;;;5123473;27;20430;-81
2021/04/15 08:48:53;;;;;;;2.37;1.50;;;8.60;98.50;;;;;;5126420;27;20414;-82
2021/04/15 08:51:31;;;;;;;1.70;1.00;;;8.50;98.40;;;;;;5121526;27;20851;-81
2021/04/15 08:54:16;;;;;;;1.83;1.00;;;8.20;97.30;;;;;;5140255;27;20509;-81
2021/04/15 08:56:49;;;;;;;1.70;1.40;;;8.40;95.50;;;;;;5141985;27;20400;-81
2021/04/15 08:59:32;;;;;;;1.27;1.10;;;8.20;95.20;;;;;;5129317;27;20458;-80
2021/04/15 09:02:26;;;;;;;1.10;1.00;;;8.60;95.70;;;;;;5139233;27;20440;-81
2021/04/15 09:05:19;;;;;;;2.83;1.23;;;8.80;95.00;;;;;;5140074;27;20375;-82
2021/04/15 09:07:51;;;;;;;1.93;0.90;;;9.10;94.50;;;;;;5138992;27;20450;-81
2021/04/15 09:10:52;;;;;;;1.00;0.90;;;8.90;93.20;;;;;;5134366;27;20505;-80
2021/04/15 09:13:39;;;;;;;0.77;0.70;;;8.90;92.50;;;;;;5126591;27;20419;-80
2021/04/15 09:16:26;;;;;;;3.00;0.80;;;9.40;91.20;;;;;;5117694;28;20809;-79
2021/04/15 09:19:11;;;;;;;2.23;1.27;;;9.70;90.60;;;;;;5124761;27;20540;-81
2021/04/15 09:21:50;;;;;;;0.83;0.80;;;9.30;82.80;;;;;;5120994;27;20402;-81
2021/04/15 09:24:30;;;;;;;2.50;1.03;;;9.30;81.80;;;;;;5139197;27;20406;-82
2021/04/15 09:27:20;;;;;;;1.40;1.10;;;9.10;80.60;;;;;;5120160;27;20799;-81
2021/04/15 09:29:52;;;;;;;1.17;0.70;;;9.10;80.80;;;;;;5139006;27;20555;-82
2021/04/15 09:32:29;;;;;;;1.03;0.93;;;9.40;80.80;;;;;;5137987;27;20914;-80
2021/04/15 09:35:36;;;;;;;1.00;0.80;;;9.60;78.10;;;;;;5134242;27;20631;-77
2021/04/15 09:38:32;;;;;;;4.30;1.10;;;9.60;77.60;;;;;;5068563;28;20460;-80
2021/04/15 09:41:16;;;;;;;1.37;1.13;;;9.40;77.90;;;;;;5075430;28;20474;-80
2021/04/15 09:43:42;;;;;;;1.20;1.10;;;9.80;76.90;;;;;;5123082;27;20913;-80
2021/04/15 09:46:16;;;;;;;2.43;0.90;;;9.60;74.90;;;;;;5105178;28;20445;-80
2021/04/15 09:48:51;;;;;;;1.13;0.83;;;9.70;75.60;;;;;;5127999;27;20205;-80
2021/04/15 09:51:50;;;;;;;2.20;0.90;;;9.80;72.40;;;;;;5141043;27;20420;-80
2021/04/15 09:54:26;;;;;;;2.23;0.90;;;9.40;71.40;;;;;;5142242;27;20440;-80
2021/04/15 09:57:27;;;;;;;1.00;0.83;;;9.30;68.60;;;;;;5122627;27;20480;-80
2021/04/15 10:00:16;;;;;;;1.00;0.70;;;8.80;69.70;;;;;;5141428;27;20409;-79
2021/04/15 10:03:09;;;;;;;2.33;0.80;;;9.00;70.80;;;;;;5141140;27;20454;-80
2021/04/15 10:05:46;;;;;;;0.80;0.73;;;9.20;71.00;;;;;;5141126;27;20437;-79
2021/04/15 10:08:55;;;;;;;1.10;0.90;;;9.00;69.60;;;;;;5140718;27;20458;-80
2021/04/15 10:12:02;;;;;;;0.87;0.80;;;8.70;67.70;;;;;;5128884;27;20468;-81
2021/04/15 10:14:40;;;;;;;1.40;0.80;;;8.70;68.60;;;;;;5096186;28;20413;-79
2021/04/15 10:17:29;;;;;;;1.20;1.10;;;8.90;67.50;;;;;;5118797;28;20407;-80
2021/04/15 10:20:33;;;;;;;1.77;0.80;;;8.90;67.50;;;;;;5103745;28;20418;-79
2021/04/15 10:23:29;;;;;;;1.33;0.70;;;8.80;68.90;;;;;;5122895;28;20423;-80
2021/04/15 10:25:58;;;;;;;1.00;0.90;;;9.00;70.10;;;;;;5118346;28;20402;-80
2021/04/15 10:28:52;;;;;;;1.33;0.87;;;8.80;71.90;;;;;;5118162;28;20418;-80
2021/04/15 10:31:39;;;;;;;2.10;1.43;;;8.60;71.70;;;;;;5118429;28;20482;-80
2021/04/15 10:34:30;;;;;;;3.07;0.90;;;8.50;73.10;;;;;;5120811;28;20395;-80
2021/04/15 10:37:13;;;;;;;1.20;0.90;;;8.40;73.10;;;;;;5104758;28;20436;-79
2021/04/15 10:40:07;;;;;;;2.17;1.10;;;8.20;71.60;;;;;;5125405;28;20403;-80
2021/04/15 10:43:17;;;;;;;1.57;1.10;;;8.10;74.60;;;;;;5143808;27;20470;-80
2021/04/15 10:46:12;;;;;;;0.80;0.80;;;7.80;76.20;;;;;;5155499;27;20418;-79
2021/04/15 10:48:49;;;;;;;1.20;1.10;;;7.70;77.00;;;;;;5153709;27;20413;-81
2021/04/15 10:51:28;;;;;;;0.93;0.90;;;7.90;76.90;;;;;;5152400;27;20473;-81
2021/04/15 10:53:56;;;;;;;1.23;0.73;;;7.80;76.40;;;;;;5154911;27;20418;-82
2021/04/15 10:56:33;;;;;;;1.07;0.70;;;7.80;77.70;;;;;;5157623;27;20433;-83
2021/04/15 10:59:01;;;;;;;0.70;0.70;;;8.00;78.90;;;;;;5140093;27;20469;-83
2021/04/15 11:01:37;;;;;;;1.23;0.60;;;8.20;77.90;;;;;;5145644;27;20426;-81
2021/04/15 11:04:22;;;;;;;0.83;0.83;;;8.10;77.60;;;;;;5128923;28;20438;-76
2021/04/15 11:06:55;;;;;;;1.73;1.03;;;8.50;78.30;;;;;;5124369;28;20763;-79
2021/04/15 11:09:27;;;;;;;0.83;0.80;;;8.50;78.50;;;;;;5123073;28;20495;-77
2021/04/15 11:12:14;;;;;;;3.13;0.87;;;8.20;79.20;;;;;;5133463;28;20860;-79
2021/04/15 11:15:08;;;;;;;1.20;0.83;;;8.10;81.90;;;;;;5104959;28;20395;-78
2021/04/15 11:17:41;;;;;;;2.60;1.00;;;8.10;81.80;;;;;;5134534;28;20475;-79
2021/04/15 11:20:19;;;;;;;1.20;1.10;;;8.20;82.10;;;;;;5135097;28;20386;-81
2021/04/15 11:22:56;;;;;;;0.97;0.70;;;7.90;82.90;;;;;;5117650;28;20438;-83
2021/04/15 11:25:35;;;;;;;2.13;0.80;;;7.90;81.90;;;;;;5128306;28;20411;-81
2021/04/15 11:28:24;;;;;;;1.13;0.90;;;7.90;83.20;;;;;;5132798;28;20405;-82
2021/04/15 11:30:54;;;;;;;1.53;0.83;;;7.80;81.80;;;;;;5113119;28;20854;-83
2021/04/15 11:33:41;;;;;;;0.80;0.80;;;7.90;82.60;;;;;;5140702;28;20430;-82
2021/04/15 11:36:24;;;;;;;1.03;0.90;;;8.10;83.10;;;;;;5148352;28;20398;-83
2021/04/15 11:39:03;;;;;;;1.87;1.37;;;8.30;84.20;;;;;;5151602;28;20452;-83
2021/04/15 11:41:29;;;;;;;1.90;1.33;;;7.90;85.60;;;;;;5151135;28;20421;-83
2021/04/15 11:44:03;;;;;;;2.10;1.00;;;8.20;87.70;;;;;;5133446;28;20465;-83
2021/04/15 11:46:48;;;;;;;1.17;1.10;;;8.00;90.00;;;;;;5151285;28;20410;-82
2021/04/15 11:49:32;;;;;;;1.87;1.00;;;7.90;91.20;;;;;;5153338;27;20424;-81
2021/04/15 11:52:11;;;;;;;0.97;0.90;;;7.90;90.40;;;;;;5129017;28;20472;-82
2021/04/15 11:54:58;;;;;;;1.57;1.10;;;8.10;90.10;;;;;;5126555;28;20467;-82
2021/04/15 11:57:33;;;;;;;2.40;1.20;;;7.80;88.10;;;;;;5125120;28;20415;-81
2021/04/15 11:59:59;;;;;;;1.77;0.83;;;7.70;90.00;;;;;;5111846;28;20432;-82
2021/04/15 12:02:45;;;;;;;2.67;1.10;;;7.80;90.10;;;;;;5126733;28;20410;-75
2021/04/15 12:05:20;;;;;;;1.33;1.10;;;7.90;90.10;;;;;;5126830;28;20450;-85
2021/04/15 12:08:25;;;;;;;0.90;0.87;;;8.00;89.70;;;;;;5126483;28;20421;-83
2021/04/15 12:11:02;;;;;;;0.80;0.80;;;8.00;87.00;;;;;;5116820;28;20429;-82
2021/04/15 12:13:37;;;;;;;1.30;1.10;;;7.80;86.40;;;;;;5147719;27;20430;-81
2021/04/15 12:16:25;;;;;;;5.60;1.30;;;8.00;86.20;;;;;;5151463;27;20882;-81
2021/04/15 12:19:11;;;;;;;1.00;0.90;;;8.10;85.80;;;;;;5152795;27;20445;-81
2021/04/15 12:21:58;;;;;;;0.90;0.80;;;8.00;86.00;;;;;;5131932;27;20499;-81
2021/04/15 12:24:46;;;;;;;2.40;0.87;;;8.20;85.60;;;;;;5146972;27;20489;-80
2021/04/15 12:27:27;;;;;;;2.20;0.80;;;8.20;83.50;;;;;;5126541;27;20422;-80
2021/04/15 12:30:31;;;;;;;1.80;1.00;;;8.30;83.00;;;;;;5107341;28;20478;-82
2021/04/15 12:33:24;;;;;;;2.40;1.00;;;8.30;82.40;;;;;;5107526;28;20658;-82
2021/04/15 12:36:01;;;;;;;1.30;0.90;;;8.40;82.30;;;;;;5126856;28;20417;-82
2021/04/15 12:38:37;;;;;;;1.80;0.93;;;8.40;82.30;;;;;;5121028;28;20457;-82
2021/04/15 12:41:08;;;;;;;1.20;1.00;;;8.30;83.40;;;;;;5122061;28;20466;-80
2021/04/15 12:43:41;;;;;;;1.47;1.03;;;8.20;84.70;;;;;;5116877;27;20472;-79
2021/04/15 12:46:19;;;;;;;1.10;1.00;;;8.10;85.60;;;;;;5139252;27;20394;-80
2021/04/15 12:49:08;;;;;;;2.00;1.30;;;8.20;85.40;;;;;;5121974;27;20424;-79
2021/04/15 12:51:38;;;;;;;2.10;1.00;;;8.10;84.50;;;;;;5125971;27;20410;-82
2021/04/15 12:54:11;;;;;;;1.60;1.30;;;8.40;84.00;;;;;;5125970;27;20408;-84
2021/04/15 12:56:38;;;;;;;1.87;0.97;;;8.30;83.10;;;;;;5144298;27;20479;-82
2021/04/15 12:59:05;;;;;;;1.13;1.03;;;8.40;82.90;;;;;;5122940;27;20454;-81
2021/04/15 13:01:39;;;;;;;1.07;0.90;;;8.50;82.40;;;;;;5132505;27;20417;-83
2021/04/15 13:04:40;;;;;;;0.90;0.80;;;8.50;81.70;;;;;;5129423;28;20776;-80
2021/04/15 13:07:37;;;;;;;0.97;0.90;;;8.50;81.60;;;;;;5133394;28;20403;-79
2021/04/15 13:10:15;;;;;;;1.00;0.90;;;8.60;81.30;;;;;;5107920;28;20427;-80
2021/04/15 13:12:43;;;;;;;1.97;1.10;;;8.70;80.40;;;;;;5117004;28;20814;-79
2021/04/15 13:15:28;;;;;;;1.77;1.00;;;8.90;80.80;;;;;;5127181;28;20407;-79
2021/04/15 13:18:00;;;;;;;1.30;1.20;;;9.20;79.70;;;;;;5108885;28;20518;-79
2021/04/15 13:20:25;;;;;;;1.57;1.20;;;8.90;77.80;;;;;;5142867;27;20410;-80
2021/04/15 13:23:06;;;;;;;2.60;1.10;;;8.70;79.20;;;;;;5147218;27;20453;-80
2021/04/15 13:25:33;;;;;;;1.43;0.90;;;8.70;80.00;;;;;;5135587;27;20168;-80
2021/04/15 13:28:01;;;;;;;3.00;1.40;;;8.60;78.80;;;;;;5128622;28;20946;-78
2021/04/15 13:30:31;;;;;;;1.80;1.10;;;8.80;78.00;;;;;;5126491;27;20426;-79
2021/04/15 13:32:56;;;;;;;1.20;1.10;;;8.80;78.00;;;;;;5128720;27;20426;-79
2021/04/15 13:35:35;;;;;;;3.23;0.93;;;8.70;75.70;;;;;;5147739;27;20643;-80
2021/04/15 13:38:02;;;;;;;1.33;1.13;;;8.60;75.30;;;;;;5131939;27;20275;-78
2021/04/15 13:40:43;;;;;;;1.30;1.20;;;8.50;73.10;;;;;;5150298;27;20468;-80
2021/04/15 13:43:33;;;;;;;1.80;1.17;;;8.50;71.90;;;;;;5145996;27;20452;-80
2021/04/15 13:46:28;;;;;;;1.40;1.27;;;8.50;72.60;;;;;;5122329;28;20406;-80
2021/04/15 13:48:57;;;;;;;1.13;0.90;;;8.40;71.10;;;;;;5113182;27;20463;-79
2021/04/15 13:51:54;;;;;;;1.80;1.20;;;8.40;71.40;;;;;;5128422;27;20420;-80
2021/04/15 13:54:34;;;;;;;0.93;0.90;;;8.30;70.80;;;;;;5150976;27;20442;-80
2021/04/15 13:57:18;;;;;;;1.83;1.40;;;8.50;70.50;;;;;;5150613;27;20405;-80
2021/04/15 13:59:45;;;;;;;1.20;0.90;;;8.50;72.50;;;;;;5127372;27;20430;-80
2021/04/15 14:02:13;;;;;;;3.00;1.30;;;8.60;72.00;;;;;;5132277;27;20471;-80